KFPR

Treasure Coast International Airport

Fort Pierce, Florida, USA
METAR KFPR 181453Z 34008KT 10SM SCT015 06/01 A3036 RMK AO2 SLP281 T00610006 50010 $
Observed Flight Rules
Jan-18 @ 14:53 UTC (33 minutes ago) Visual Flight Rules
Wind Visibility Clouds
340° at 8 knots 10 miles
  • Scattered at 1,500' AGL
Temperatures Readings
Current 6°C / 43°F
Dewpoint 1°C / 34°F
Humidity 71%
Altimeter 30.36" Hg
Pressure 1028.1 hPa
Elevation 13
METAR KFPR 181453Z 34008KT 10SM SCT015 06/01 A3036 RMK AO2 SLP281 T00610006 50010 $
Observed Flight Rules
Jan-18 @ 14:53 UTC
(33 minutes ago)
VFR
Wind Visibility
340° at 8 knots 10 miles
Clouds
  • Scattered at 1,500' AGL
Temperature Dewpoint
6°C / 43°F 1°C / 34°F
Humidity Altimeter Pressure
71% 30.36" Hg 1028.1 hPa